createdAt,value
2023-12-21T00:01:33.073Z,3.75
2023-12-21T00:03:59.741Z,1.88
2023-12-21T00:06:26.274Z,1.20
2023-12-21T00:08:52.761Z,1.60
2023-12-21T00:11:19.246Z,2.00
2023-12-21T00:13:47.132Z,1.93
2023-12-21T00:16:14.066Z,1.20
2023-12-21T00:18:40.651Z,5.07
2023-12-21T00:21:07.587Z,0.98
2023-12-21T00:23:34.165Z,2.40
2023-12-21T00:26:01.097Z,1.97
2023-12-21T00:28:27.676Z,5.20
2023-12-21T00:30:55.628Z,1.57
2023-12-21T00:33:22.353Z,3.00
2023-12-21T00:35:48.955Z,3.00
2023-12-21T00:38:15.408Z,2.77
2023-12-21T00:40:41.944Z,0.88
2023-12-21T00:43:08.455Z,1.60
2023-12-21T00:45:34.968Z,2.03
2023-12-21T00:48:02.836Z,0.80
2023-12-21T00:50:29.472Z,0.77
2023-12-21T00:52:55.967Z,1.33
2023-12-21T00:55:22.703Z,1.50
2023-12-21T00:57:49.428Z,1.85
2023-12-21T01:00:16.478Z,0.90
2023-12-21T01:02:42.968Z,1.67
2023-12-21T01:05:10.820Z,1.07
2023-12-21T01:07:37.329Z,3.25
2023-12-21T01:10:04.465Z,2.23
2023-12-21T01:12:31.012Z,2.90
2023-12-21T01:14:57.748Z,4.00
2023-12-21T01:17:24.288Z,5.07
2023-12-21T01:19:50.906Z,1.40
2023-12-21T01:22:19.608Z,1.75
2023-12-21T01:24:46.255Z,0.80
2023-12-21T01:27:21.870Z,1.13
2023-12-21T01:29:56.102Z,2.03
2023-12-21T01:32:22.640Z,0.90
2023-12-21T01:34:49.254Z,0.87
2023-12-21T01:37:15.840Z,0.95
2023-12-21T01:39:43.673Z,1.30
2023-12-21T01:42:10.172Z,0.70
2023-12-21T01:44:36.637Z,2.55
2023-12-21T01:47:03.671Z,0.93
2023-12-21T01:49:30.649Z,0.82
2023-12-21T01:51:57.752Z,1.05
2023-12-21T01:54:24.321Z,2.40
2023-12-21T01:56:52.547Z,1.10
2023-12-21T01:59:19.188Z,0.65
2023-12-21T02:01:45.715Z,1.00
2023-12-21T02:04:12.474Z,0.90
2023-12-21T02:06:40.254Z,1.05
2023-12-21T02:09:06.827Z,1.55
2023-12-21T02:11:33.319Z,0.70
2023-12-21T02:14:01.292Z,0.70
2023-12-21T02:16:35.204Z,2.75
2023-12-21T02:19:02.787Z,1.08
2023-12-21T02:21:30.593Z,0.60
2023-12-21T02:23:59.785Z,1.88
2023-12-21T02:26:27.711Z,1.23
2023-12-21T02:28:54.183Z,0.65
2023-12-21T02:31:20.688Z,1.02
2023-12-21T02:33:47.392Z,0.70
2023-12-21T02:36:13.953Z,0.73
2023-12-21T02:38:40.477Z,0.70
2023-12-21T02:41:07.002Z,0.83
2023-12-21T02:43:35.143Z,0.77
2023-12-21T02:46:01.805Z,0.50
2023-12-21T02:48:28.382Z,0.50
2023-12-21T02:50:55.730Z,0.60
2023-12-21T02:53:22.266Z,2.25
2023-12-21T02:55:48.946Z,0.60
2023-12-21T02:58:15.535Z,0.88
2023-12-21T03:00:43.425Z,2.57
2023-12-21T03:03:10.088Z,0.50
2023-12-21T03:05:36.707Z,0.70
2023-12-21T03:08:03.474Z,0.53
2023-12-21T03:10:30.002Z,0.68
2023-12-21T03:12:56.514Z,0.60
2023-12-21T03:15:22.993Z,0.77
2023-12-21T03:17:52.252Z,0.70
2023-12-21T03:20:18.878Z,0.50
2023-12-21T03:22:45.783Z,1.27
2023-12-21T03:25:12.592Z,0.80
2023-12-21T03:27:39.084Z,0.80
2023-12-21T03:30:07.029Z,0.65
2023-12-21T03:32:33.568Z,3.03
2023-12-21T03:35:01.490Z,1.30
2023-12-21T03:37:28.061Z,0.40
2023-12-21T03:39:55.139Z,0.70
2023-12-21T03:42:21.655Z,0.60
2023-12-21T03:44:48.214Z,0.73
2023-12-21T03:47:14.941Z,0.60
2023-12-21T03:49:41.703Z,0.63
2023-12-21T03:52:10.020Z,0.60
2023-12-21T03:54:36.587Z,0.60
2023-12-21T03:57:03.198Z,0.60
2023-12-21T03:59:29.678Z,0.50
2023-12-21T04:01:57.795Z,1.05
2023-12-21T04:04:25.893Z,0.50
2023-12-21T04:06:54.149Z,1.13
2023-12-21T04:09:21.955Z,1.08
2023-12-21T04:11:48.441Z,0.85
2023-12-21T04:14:14.934Z,0.50
2023-12-21T04:16:41.490Z,2.73
2023-12-21T04:19:08.075Z,0.60
2023-12-21T04:21:34.578Z,0.50
2023-12-21T04:24:01.089Z,0.87
2023-12-21T04:26:28.929Z,1.67
2023-12-21T04:28:55.414Z,1.50
2023-12-21T04:31:22.799Z,0.60
2023-12-21T04:36:16.353Z,0.52
2023-12-21T04:38:42.818Z,0.80
2023-12-21T04:41:09.358Z,0.65
2023-12-21T04:43:37.526Z,0.57
2023-12-21T04:46:04.997Z,0.70
2023-12-21T04:50:58.190Z,1.17
2023-12-21T04:53:24.662Z,0.70
2023-12-21T04:55:51.119Z,0.50
2023-12-21T04:58:17.616Z,0.70
2023-12-21T05:00:45.764Z,0.63
2023-12-21T05:03:13.197Z,1.60
2023-12-21T05:05:40.916Z,0.75
2023-12-21T05:08:07.766Z,2.42
2023-12-21T05:10:34.249Z,0.73
2023-12-21T05:13:00.774Z,1.20
2023-12-21T05:15:27.255Z,0.50
2023-12-21T05:17:55.166Z,1.03
2023-12-21T05:20:21.716Z,0.75
2023-12-21T05:22:48.512Z,1.45
2023-12-21T05:25:15.960Z,0.70
2023-12-21T05:27:42.478Z,0.65
2023-12-21T05:30:10.805Z,0.65
2023-12-21T05:32:37.380Z,0.73
2023-12-21T05:35:06.303Z,0.87
2023-12-21T05:37:32.829Z,0.60
2023-12-21T05:39:59.432Z,0.70
2023-12-21T05:42:25.931Z,0.80
2023-12-21T05:44:52.472Z,0.60
2023-12-21T05:47:19.022Z,3.65
2023-12-21T05:49:45.554Z,0.63
2023-12-21T05:52:13.794Z,0.60
2023-12-21T05:54:40.306Z,0.40
2023-12-21T05:57:06.817Z,0.67
2023-12-21T05:59:33.299Z,0.50
2023-12-21T06:01:59.786Z,0.60
2023-12-21T06:04:26.339Z,0.60
2023-12-21T06:06:52.961Z,0.97
2023-12-21T06:09:20.844Z,0.53
2023-12-21T06:11:50.318Z,0.50
2023-12-21T06:14:17.798Z,0.50
2023-12-21T06:16:44.298Z,0.73
2023-12-21T06:19:11.045Z,0.60
2023-12-21T06:21:37.875Z,1.40
2023-12-21T06:24:04.870Z,0.65
2023-12-21T06:26:32.731Z,0.43
2023-12-21T06:28:59.343Z,0.40
2023-12-21T06:31:25.892Z,0.87
2023-12-21T06:33:52.426Z,0.97
2023-12-21T06:36:18.977Z,0.60
2023-12-21T06:38:46.109Z,0.60
2023-12-21T06:41:14.069Z,0.63
2023-12-21T06:43:41.981Z,0.80
2023-12-21T06:46:12.587Z,0.60
2023-12-21T06:48:39.071Z,2.63
2023-12-21T06:51:05.829Z,0.70
2023-12-21T06:53:32.348Z,0.60
2023-12-21T06:56:13.661Z,0.60
2023-12-21T06:58:46.633Z,0.50
2023-12-21T07:01:13.329Z,0.43
2023-12-21T07:03:39.951Z,0.65
2023-12-21T07:06:09.249Z,0.70
2023-12-21T07:08:35.715Z,0.98
2023-12-21T07:11:02.224Z,1.60
2023-12-21T07:13:28.829Z,0.67
2023-12-21T07:15:56.705Z,0.40
2023-12-21T07:18:23.197Z,0.82
2023-12-21T07:20:49.705Z,1.83
2023-12-21T07:23:16.184Z,0.50
2023-12-21T07:25:42.785Z,0.70
2023-12-21T07:28:09.458Z,0.97
2023-12-21T07:30:36.046Z,0.60
2023-12-21T07:33:06.405Z,0.77
2023-12-21T07:35:33.196Z,0.52
2023-12-21T07:37:59.750Z,3.20
2023-12-21T07:40:26.397Z,0.73
2023-12-21T07:42:53.036Z,1.23
2023-12-21T07:45:19.633Z,2.53
2023-12-21T07:47:46.228Z,0.52
2023-12-21T07:50:14.091Z,0.50
2023-12-21T07:52:40.695Z,0.63
2023-12-21T07:55:08.321Z,0.60
2023-12-21T07:57:35.009Z,0.50
2023-12-21T08:00:01.714Z,1.60
2023-12-21T08:02:28.256Z,1.20
2023-12-21T08:04:54.863Z,0.68
2023-12-21T08:07:22.836Z,0.60
2023-12-21T08:09:49.332Z,0.50
2023-12-21T08:12:15.819Z,0.50
2023-12-21T08:14:42.336Z,0.70
2023-12-21T08:17:08.805Z,2.35
2023-12-21T08:19:35.561Z,2.70
2023-12-21T08:22:02.143Z,0.68
2023-12-21T08:24:30.098Z,0.57
2023-12-21T08:26:56.562Z,0.40
2023-12-21T08:29:23.096Z,0.70
2023-12-21T08:31:49.736Z,0.50
2023-12-21T08:34:16.316Z,0.60
2023-12-21T08:36:42.842Z,2.33
2023-12-21T08:39:09.448Z,0.57
2023-12-21T08:41:37.330Z,0.87
2023-12-21T08:44:03.960Z,0.52
2023-12-21T08:46:30.485Z,1.27
2023-12-21T08:48:56.976Z,0.93
2023-12-21T08:51:23.515Z,1.07
2023-12-21T08:53:50.001Z,0.60
2023-12-21T08:56:16.629Z,0.52
2023-12-21T08:58:44.647Z,0.50
2023-12-21T09:01:11.355Z,0.50
2023-12-21T09:03:37.913Z,5.13
2023-12-21T09:06:05.140Z,0.50
2023-12-21T09:08:31.807Z,0.55
2023-12-21T09:10:58.368Z,0.50
2023-12-21T09:13:24.975Z,0.67
2023-12-21T09:15:53.007Z,3.20
2023-12-21T09:18:19.804Z,0.60
2023-12-21T09:20:46.376Z,0.90
2023-12-21T09:23:13.263Z,0.50
2023-12-21T09:25:39.929Z,1.30
2023-12-21T09:28:06.451Z,0.60
2023-12-21T09:30:33.052Z,1.13
2023-12-21T09:33:01.068Z,0.60
2023-12-21T09:35:27.696Z,0.60
2023-12-21T09:37:54.265Z,0.40
2023-12-21T09:40:20.898Z,0.98
2023-12-21T09:42:58.141Z,0.73
2023-12-21T09:45:32.158Z,0.57
2023-12-21T09:48:01.753Z,1.55
2023-12-21T09:50:29.913Z,0.30
2023-12-21T09:52:57.551Z,0.40
2023-12-21T09:55:25.250Z,0.40
2023-12-21T09:57:52.167Z,0.60
2023-12-21T10:00:18.954Z,0.57
2023-12-21T10:02:45.842Z,0.50
2023-12-21T10:05:13.947Z,1.00
2023-12-21T10:07:40.529Z,0.43
2023-12-21T10:10:07.939Z,0.40
2023-12-21T10:15:01.434Z,0.50
2023-12-21T10:17:27.903Z,0.40
2023-12-21T10:19:54.378Z,0.60
2023-12-21T10:22:22.488Z,1.23
2023-12-21T10:24:49.119Z,0.77
2023-12-21T10:27:15.693Z,0.52
2023-12-21T10:29:42.212Z,2.23
2023-12-21T10:32:08.690Z,0.82
2023-12-21T10:34:36.834Z,0.80
2023-12-21T10:37:03.958Z,0.40
2023-12-21T10:39:32.162Z,0.50
2023-12-21T10:41:59.078Z,1.00
2023-12-21T10:44:26.491Z,0.60
2023-12-21T10:49:21.213Z,0.40
2023-12-21T10:51:48.781Z,0.30
2023-12-21T10:56:49.603Z,0.50
2023-12-21T10:59:20.236Z,0.50
2023-12-21T11:01:47.089Z,0.40
2023-12-21T11:04:15.633Z,0.70
2023-12-21T11:06:43.258Z,0.45
2023-12-21T11:09:12.155Z,0.50
2023-12-21T11:11:40.121Z,0.25
2023-12-21T11:14:08.215Z,0.60
2023-12-21T11:16:38.655Z,0.40
2023-12-21T11:19:08.866Z,0.40
2023-12-21T11:21:36.015Z,0.40
2023-12-21T11:24:03.033Z,0.40
2023-12-21T11:26:30.218Z,0.40
2023-12-21T11:29:06.793Z,0.60
2023-12-21T11:31:38.491Z,0.60
2023-12-21T11:34:13.224Z,0.40
2023-12-21T11:36:40.435Z,0.32
2023-12-21T11:39:12.100Z,0.40
2023-12-21T11:41:49.060Z,0.40
2023-12-21T11:44:16.096Z,1.05
2023-12-21T11:46:44.398Z,0.40
2023-12-21T11:49:12.973Z,0.47
2023-12-21T11:51:47.948Z,0.75
2023-12-21T11:54:19.641Z,2.28
2023-12-21T11:59:13.754Z,0.65
2023-12-21T12:01:40.907Z,0.40
2023-12-21T12:04:12.169Z,0.47
2023-12-21T12:06:39.168Z,0.82
2023-12-21T12:09:06.232Z,0.60
2023-12-21T12:11:32.884Z,2.20
2023-12-21T12:13:59.831Z,1.93
2023-12-21T12:16:26.518Z,0.32
2023-12-21T12:18:53.644Z,0.50
2023-12-21T12:21:21.599Z,0.55
2023-12-21T12:23:48.214Z,2.15
2023-12-21T12:26:15.607Z,1.60
2023-12-21T12:31:09.054Z,0.68
2023-12-21T12:33:35.787Z,0.50
2023-12-21T12:36:04.951Z,0.57
2023-12-21T12:38:32.985Z,0.40
2023-12-21T12:41:01.181Z,1.48
2023-12-21T12:43:28.087Z,0.30
2023-12-21T12:45:54.769Z,1.90
2023-12-21T12:48:21.424Z,0.40
2023-12-21T12:50:48.068Z,0.60
2023-12-21T12:53:16.337Z,0.40
2023-12-21T12:55:46.509Z,0.90
2023-12-21T12:58:14.428Z,2.08
2023-12-21T13:00:40.915Z,0.40
2023-12-21T13:03:07.715Z,1.27
2023-12-21T13:05:34.370Z,0.40
2023-12-21T13:08:01.063Z,0.50
2023-12-21T13:10:27.767Z,1.50
2023-12-21T13:12:55.665Z,3.13
2023-12-21T13:15:22.264Z,0.30
2023-12-21T13:17:49.090Z,0.40
2023-12-21T13:20:15.868Z,0.40
2023-12-21T13:22:42.506Z,0.57
2023-12-21T13:25:09.216Z,0.50
2023-12-21T13:27:35.743Z,0.40
2023-12-21T13:30:04.101Z,0.67
2023-12-21T13:32:31.356Z,0.40
2023-12-21T13:37:24.662Z,0.45
2023-12-21T13:39:51.563Z,0.37
2023-12-21T13:42:18.068Z,0.73
2023-12-21T13:44:44.572Z,1.35
2023-12-21T13:47:12.566Z,3.63
2023-12-21T13:49:39.369Z,2.50
2023-12-21T13:52:06.419Z,0.40
2023-12-21T13:54:33.076Z,0.40
2023-12-21T13:57:10.725Z,0.30
2023-12-21T13:59:41.642Z,0.60
2023-12-21T14:02:08.706Z,2.72
2023-12-21T14:04:36.824Z,0.20
2023-12-21T14:07:03.943Z,0.98
2023-12-21T14:09:31.091Z,0.50
2023-12-21T14:11:57.872Z,2.42
2023-12-21T14:14:24.368Z,0.30
2023-12-21T14:16:51.198Z,2.45
2023-12-21T14:19:17.863Z,0.40
2023-12-21T14:21:45.816Z,0.50
2023-12-21T14:24:12.803Z,0.45
2023-12-21T14:26:39.319Z,1.73
2023-12-21T14:29:05.892Z,0.88
2023-12-21T14:31:32.932Z,0.50
2023-12-21T14:33:59.633Z,0.50
2023-12-21T14:36:26.123Z,0.40
2023-12-21T14:38:54.036Z,0.50
2023-12-21T14:41:20.564Z,0.85
2023-12-21T14:43:47.556Z,0.40
2023-12-21T14:46:14.632Z,0.47
2023-12-21T14:48:41.370Z,0.50
2023-12-21T14:51:07.963Z,3.22
2023-12-21T14:53:34.892Z,0.43
2023-12-21T14:56:02.948Z,4.38
2023-12-21T14:58:29.872Z,0.60
2023-12-21T15:00:56.811Z,0.65
2023-12-21T15:03:23.914Z,0.90
2023-12-21T15:05:50.972Z,0.55
2023-12-21T15:08:17.570Z,5.50
2023-12-21T15:10:44.178Z,1.83
2023-12-21T15:13:12.625Z,0.60
2023-12-21T15:15:39.408Z,3.22
2023-12-21T15:18:06.309Z,1.77
2023-12-21T15:20:33.416Z,0.55
2023-12-21T15:23:00.594Z,0.70
2023-12-21T15:27:53.927Z,0.90
2023-12-21T15:30:22.030Z,2.53
2023-12-21T15:32:49.171Z,3.35
2023-12-21T15:35:16.726Z,0.75
2023-12-21T15:37:43.959Z,3.28
2023-12-21T15:40:11.599Z,0.68
2023-12-21T15:42:38.701Z,2.42
2023-12-21T15:45:06.525Z,0.77
2023-12-21T15:47:34.427Z,0.95
2023-12-21T15:50:01.270Z,0.60
2023-12-21T15:52:27.818Z,0.52
2023-12-21T15:54:54.329Z,0.65
2023-12-21T15:57:21.143Z,1.17
2023-12-21T15:59:48.287Z,0.73
2023-12-21T16:02:15.302Z,0.93
2023-12-21T16:04:43.652Z,1.05
2023-12-21T16:07:10.231Z,0.60
2023-12-21T16:09:36.780Z,4.03
2023-12-21T16:12:03.829Z,0.68
2023-12-21T16:14:30.308Z,2.95
2023-12-21T16:16:56.856Z,1.08
2023-12-21T16:19:23.808Z,1.90
2023-12-21T16:21:51.640Z,2.00
2023-12-21T16:24:18.469Z,2.72
2023-12-21T16:26:45.131Z,2.17
2023-12-21T16:29:11.638Z,1.50
2023-12-21T16:31:38.191Z,0.60
2023-12-21T16:34:04.972Z,2.17
2023-12-21T16:36:31.487Z,0.50
2023-12-21T16:38:59.332Z,0.90
2023-12-21T16:41:25.821Z,0.73
2023-12-21T16:43:52.350Z,0.50
2023-12-21T16:46:18.923Z,0.43
2023-12-21T16:48:45.456Z,0.70
2023-12-21T16:51:12.821Z,0.60
2023-12-21T16:56:07.478Z,1.20
2023-12-21T16:58:34.049Z,11.50
2023-12-21T17:01:00.683Z,1.70
2023-12-21T17:03:27.263Z,11.60
2023-12-21T17:05:53.875Z,14.27
2023-12-21T17:08:20.405Z,37.07
2023-12-21T17:10:46.980Z,1.10
2023-12-21T17:13:14.848Z,4.87
2023-12-21T17:15:41.321Z,1.33
2023-12-21T17:18:07.820Z,4.30
2023-12-21T17:20:34.449Z,12.33
2023-12-21T17:23:01.143Z,4.03
2023-12-21T17:25:27.695Z,8.73
2023-12-21T17:27:54.246Z,16.63
2023-12-21T17:30:22.064Z,13.02
2023-12-21T17:32:48.530Z,10.32
2023-12-21T17:35:15.215Z,43.38
2023-12-21T17:37:41.785Z,12.13
2023-12-21T17:40:09.082Z,6.05
2023-12-21T17:42:35.611Z,3.42
2023-12-21T17:45:02.191Z,1.08
2023-12-21T17:47:30.024Z,28.47
2023-12-21T17:49:56.561Z,2.88
2023-12-21T17:52:23.109Z,41.60
2023-12-21T17:54:49.605Z,3.80
2023-12-21T17:57:16.160Z,1.77
2023-12-21T17:59:42.660Z,14.53
2023-12-21T18:02:09.465Z,1.20
2023-12-21T18:04:37.417Z,18.95
2023-12-21T18:07:04.272Z,5.53
2023-12-21T18:09:30.724Z,1.45
2023-12-21T18:11:57.208Z,2.42
2023-12-21T18:14:23.690Z,1.43
2023-12-21T18:16:50.501Z,1.23
2023-12-21T18:19:17.758Z,5.00
2023-12-21T18:21:45.680Z,3.80
2023-12-21T18:24:12.205Z,4.15
2023-12-21T18:26:38.709Z,13.18
2023-12-21T18:29:05.198Z,6.60
2023-12-21T18:31:31.810Z,12.10
2023-12-21T18:33:58.631Z,5.38
2023-12-21T18:36:25.343Z,21.20
2023-12-21T18:38:53.139Z,14.52
2023-12-21T18:41:19.624Z,24.60
2023-12-21T18:43:46.231Z,21.75
2023-12-21T18:46:12.824Z,8.37
2023-12-21T18:48:39.480Z,7.87
2023-12-21T18:51:06.036Z,38.17
2023-12-21T18:53:33.140Z,16.00
2023-12-21T18:56:01.114Z,52.17
2023-12-21T18:58:27.924Z,16.23
2023-12-21T19:00:54.666Z,33.90
2023-12-21T19:03:21.174Z,12.38
2023-12-21T19:05:47.717Z,6.95
2023-12-21T19:08:15.356Z,35.60
2023-12-21T19:10:42.316Z,24.52
2023-12-21T19:13:10.269Z,22.65
2023-12-21T19:15:37.184Z,38.08
2023-12-21T19:18:04.606Z,36.08
2023-12-21T19:22:58.276Z,61.45
2023-12-21T19:25:26.232Z,58.20
2023-12-21T19:27:53.211Z,16.67
2023-12-21T19:30:21.590Z,8.00
2023-12-21T19:32:48.656Z,8.45
2023-12-21T19:35:15.376Z,2.90
2023-12-21T19:37:41.994Z,4.70
2023-12-21T19:40:10.266Z,2.80
2023-12-21T19:42:37.142Z,21.27
2023-12-21T19:45:05.454Z,13.88
2023-12-21T19:47:33.665Z,10.57
2023-12-21T19:50:00.666Z,7.15
2023-12-21T19:52:27.690Z,6.90
2023-12-21T19:54:54.647Z,20.15
2023-12-21T19:57:21.372Z,25.67
2023-12-21T19:59:47.857Z,15.80
2023-12-21T20:02:14.741Z,8.30
2023-12-21T20:04:43.279Z,17.73
2023-12-21T20:07:10.156Z,34.20
2023-12-21T20:09:36.807Z,6.70
2023-12-21T20:12:03.935Z,5.77
2023-12-21T20:14:30.588Z,13.20
2023-12-21T20:16:57.139Z,5.10
2023-12-21T20:19:26.325Z,8.57
2023-12-21T20:21:55.613Z,12.80
2023-12-21T20:24:22.550Z,15.27
2023-12-21T20:26:49.041Z,6.07
2023-12-21T20:29:15.566Z,10.35
2023-12-21T20:31:42.094Z,16.48
2023-12-21T20:34:08.971Z,4.73
2023-12-21T20:36:35.716Z,7.20
2023-12-21T20:39:03.783Z,9.40
2023-12-21T20:41:30.249Z,2.63
2023-12-21T20:43:57.190Z,2.28
2023-12-21T20:46:24.146Z,11.70
2023-12-21T20:48:50.627Z,15.45
2023-12-21T20:51:17.515Z,4.13
2023-12-21T20:53:43.988Z,8.23
2023-12-21T20:56:11.846Z,5.78
2023-12-21T20:58:38.338Z,10.73
2023-12-21T21:01:05.127Z,3.50
2023-12-21T21:03:31.735Z,4.45
2023-12-21T21:05:58.316Z,6.37
2023-12-21T21:08:24.806Z,12.50
2023-12-21T21:10:51.418Z,7.57
2023-12-21T21:13:19.370Z,3.92
2023-12-21T21:15:45.906Z,3.80
2023-12-21T21:18:12.632Z,7.03
2023-12-21T21:20:39.397Z,8.25
2023-12-21T21:23:05.996Z,3.42
2023-12-21T21:25:32.602Z,5.60
2023-12-21T21:27:59.226Z,5.70
2023-12-21T21:30:55.281Z,3.13
2023-12-21T21:33:14.023Z,5.07
2023-12-21T21:35:41.577Z,3.78
2023-12-21T21:38:08.068Z,6.30
2023-12-21T21:40:34.561Z,9.00
2023-12-21T21:43:01.060Z,4.37
2023-12-21T21:45:28.842Z,3.10
2023-12-21T21:47:55.410Z,4.32
2023-12-21T21:50:21.935Z,5.23
2023-12-21T21:52:48.551Z,2.30
2023-12-21T21:55:15.319Z,4.22
2023-12-21T21:57:41.848Z,1.83
2023-12-21T22:00:09.717Z,3.00
2023-12-21T22:02:37.555Z,2.15
2023-12-21T22:05:04.664Z,5.65
2023-12-21T22:07:31.301Z,7.43
2023-12-21T22:09:57.788Z,4.13
2023-12-21T22:12:24.286Z,6.70
2023-12-21T22:14:50.792Z,4.18
2023-12-21T22:17:17.297Z,5.53
2023-12-21T22:19:45.134Z,7.45
2023-12-21T22:22:12.087Z,3.20
2023-12-21T22:24:38.949Z,2.97
2023-12-21T22:27:05.925Z,6.20
2023-12-21T22:29:32.414Z,11.38
2023-12-21T22:31:58.936Z,7.18
2023-12-21T22:34:25.638Z,8.27
2023-12-21T22:36:53.988Z,8.32
2023-12-21T22:39:20.756Z,9.23
2023-12-21T22:41:47.382Z,6.95
2023-12-21T22:44:14.041Z,6.65
2023-12-21T22:46:42.631Z,16.02
2023-12-21T22:49:09.252Z,8.38
2023-12-21T22:51:35.905Z,10.48
2023-12-21T22:54:04.008Z,7.40
2023-12-21T22:56:31.012Z,10.95
2023-12-21T22:58:57.704Z,17.45
2023-12-21T23:01:24.621Z,7.05
2023-12-21T23:03:51.289Z,11.73
2023-12-21T23:06:20.141Z,6.15
2023-12-21T23:08:46.708Z,5.28
2023-12-21T23:11:14.694Z,6.70
2023-12-21T23:13:41.724Z,6.30
2023-12-21T23:16:08.636Z,4.60
2023-12-21T23:18:35.258Z,9.63
2023-12-21T23:21:01.889Z,6.95
2023-12-21T23:23:28.731Z,3.20
2023-12-21T23:25:55.322Z,4.80
2023-12-21T23:28:24.012Z,1.17
2023-12-21T23:30:51.335Z,3.28
2023-12-21T23:33:18.153Z,5.20
2023-12-21T23:35:44.835Z,1.67
2023-12-21T23:38:11.475Z,3.30
2023-12-21T23:40:37.958Z,0.87
2023-12-21T23:43:04.479Z,1.60
2023-12-21T23:45:32.301Z,1.20
2023-12-21T23:47:58.883Z,1.90
2023-12-21T23:50:25.427Z,3.13
2023-12-21T23:52:51.985Z,0.70
2023-12-21T23:55:18.555Z,3.70
2023-12-21T23:57:45.079Z,4.17
